sensor_id;sensor_type;location;lat;lon;timestamp;pressure;altitude;pressure_sealevel;temperature;humidity
77227;BME280;66234;47.642;19.144;2023-03-22T00:00:25;100264.09;;;7.23;74.22
77227;BME280;66234;47.642;19.144;2023-03-22T00:03:31;100273.47;;;7.19;74.22
77227;BME280;66234;47.642;19.144;2023-03-22T00:06:34;100278.69;;;7.12;74.24
77227;BME280;66234;47.642;19.144;2023-03-22T00:09:37;100283.09;;;7.05;74.35
77227;BME280;66234;47.642;19.144;2023-03-22T00:12:39;100275.50;;;7.02;74.62
77227;BME280;66234;47.642;19.144;2023-03-22T00:15:42;100275.75;;;6.93;74.40
77227;BME280;66234;47.642;19.144;2023-03-22T00:18:50;100273.19;;;6.85;74.46
77227;BME280;66234;47.642;19.144;2023-03-22T00:21:53;100276.47;;;6.72;74.65
77227;BME280;66234;47.642;19.144;2023-03-22T00:24:57;100269.88;;;6.68;75.01
77227;BME280;66234;47.642;19.144;2023-03-22T00:27:59;100268.03;;;6.68;74.82
77227;BME280;66234;47.642;19.144;2023-03-22T00:31:03;100269.78;;;6.61;75.06
77227;BME280;66234;47.642;19.144;2023-03-22T00:34:07;100263.25;;;6.49;74.92
77227;BME280;66234;47.642;19.144;2023-03-22T00:37:09;100262.56;;;6.33;76.08
77227;BME280;66234;47.642;19.144;2023-03-22T00:40:13;100257.22;;;6.18;76.42
77227;BME280;66234;47.642;19.144;2023-03-22T00:43:19;100260.59;;;6.12;76.40
77227;BME280;66234;47.642;19.144;2023-03-22T00:46:22;100256.63;;;6.08;76.77
77227;BME280;66234;47.642;19.144;2023-03-22T00:49:25;100252.75;;;5.96;77.15
77227;BME280;66234;47.642;19.144;2023-03-22T00:52:28;100251.91;;;5.96;77.28
77227;BME280;66234;47.642;19.144;2023-03-22T00:55:33;100253.63;;;5.89;77.02
77227;BME280;66234;47.642;19.144;2023-03-22T00:58:36;100251.84;;;5.81;77.35
77227;BME280;66234;47.642;19.144;2023-03-22T01:01:39;100241.22;;;5.81;77.51
77227;BME280;66234;47.642;19.144;2023-03-22T01:04:42;100246.09;;;5.70;78.10
77227;BME280;66234;47.642;19.144;2023-03-22T01:07:48;100242.34;;;5.64;78.18
77227;BME280;66234;47.642;19.144;2023-03-22T01:10:53;100246.31;;;5.60;77.86
77227;BME280;66234;47.642;19.144;2023-03-22T01:13:55;100246.88;;;5.48;78.55
77227;BME280;66234;47.642;19.144;2023-03-22T01:16:58;100241.31;;;5.43;79.72
77227;BME280;66234;47.642;19.144;2023-03-22T01:20:01;100248.41;;;5.42;79.50
77227;BME280;66234;47.642;19.144;2023-03-22T01:23:05;100244.47;;;5.38;79.70
77227;BME280;66234;47.642;19.144;2023-03-22T01:26:08;100241.13;;;5.44;79.39
77227;BME280;66234;47.642;19.144;2023-03-22T01:29:11;100236.28;;;5.48;79.00
77227;BME280;66234;47.642;19.144;2023-03-22T01:32:14;100237.34;;;5.39;78.50
77227;BME280;66234;47.642;19.144;2023-03-22T01:35:17;100236.69;;;5.37;78.60
77227;BME280;66234;47.642;19.144;2023-03-22T01:38:20;100241.16;;;5.36;78.57
77227;BME280;66234;47.642;19.144;2023-03-22T01:41:28;100243.34;;;5.33;78.63
77227;BME280;66234;47.642;19.144;2023-03-22T01:44:32;100235.25;;;5.26;78.84
77227;BME280;66234;47.642;19.144;2023-03-22T01:47:37;100234.66;;;5.16;79.00
77227;BME280;66234;47.642;19.144;2023-03-22T01:50:45;100233.19;;;5.14;78.91
77227;BME280;66234;47.642;19.144;2023-03-22T01:53:59;100235.34;;;5.10;79.00
77227;BME280;66234;47.642;19.144;2023-03-22T01:57:03;100245.94;;;5.10;78.50
77227;BME280;66234;47.642;19.144;2023-03-22T02:00:12;100236.22;;;4.94;79.44
77227;BME280;66234;47.642;19.144;2023-03-22T02:04:10;100236.56;;;4.91;79.33
77227;BME280;66234;47.642;19.144;2023-03-22T02:07:17;100239.69;;;4.95;79.07
77227;BME280;66234;47.642;19.144;2023-03-22T02:10:30;100237.09;;;4.87;79.52
77227;BME280;66234;47.642;19.144;2023-03-22T02:24:26;100251.78;;;4.97;78.70
77227;BME280;66234;47.642;19.144;2023-03-22T02:31:14;100243.28;;;5.10;78.91
77227;BME280;66234;47.642;19.144;2023-03-22T02:44:26;100251.31;;;5.25;78.08
77227;BME280;66234;47.642;19.144;2023-03-22T02:47:40;100251.59;;;5.38;77.57
77227;BME280;66234;47.642;19.144;2023-03-22T02:50:53;100252.31;;;5.54;77.08
77227;BME280;66234;47.642;19.144;2023-03-22T02:54:08;100253.66;;;5.58;76.80
77227;BME280;66234;47.642;19.144;2023-03-22T02:57:40;100254.09;;;5.62;76.60
77227;BME280;66234;47.642;19.144;2023-03-22T03:00:47;100263.03;;;5.69;76.33
77227;BME280;66234;47.642;19.144;2023-03-22T03:03:56;100254.06;;;5.70;76.36
77227;BME280;66234;47.642;19.144;2023-03-22T03:07:06;100259.97;;;5.80;76.04
77227;BME280;66234;47.642;19.144;2023-03-22T03:10:14;100251.16;;;5.87;75.57
77227;BME280;66234;47.642;19.144;2023-03-22T03:13:18;100248.31;;;5.89;75.92
77227;BME280;66234;47.642;19.144;2023-03-22T03:16:26;100253.94;;;5.94;76.23
77227;BME280;66234;47.642;19.144;2023-03-22T03:19:53;100273.25;;;6.02;75.76
77227;BME280;66234;47.642;19.144;2023-03-22T03:26:18;100264.66;;;6.00;75.88
77227;BME280;66234;47.642;19.144;2023-03-22T03:29:41;100254.03;;;6.00;76.70
77227;BME280;66234;47.642;19.144;2023-03-22T03:32:53;100261.94;;;6.08;76.10
77227;BME280;66234;47.642;19.144;2023-03-22T03:36:04;100261.81;;;6.02;76.50
77227;BME280;66234;47.642;19.144;2023-03-22T03:39:11;100259.34;;;6.00;76.58
77227;BME280;66234;47.642;19.144;2023-03-22T03:42:17;100256.41;;;5.95;76.54
77227;BME280;66234;47.642;19.144;2023-03-22T03:45:20;100263.66;;;6.01;76.32
77227;BME280;66234;47.642;19.144;2023-03-22T03:48:30;100266.84;;;5.97;76.31
77227;BME280;66234;47.642;19.144;2023-03-22T03:51:44;100256.25;;;5.97;76.13
77227;BME280;66234;47.642;19.144;2023-03-22T03:54:48;100251.28;;;5.94;76.16
77227;BME280;66234;47.642;19.144;2023-03-22T03:57:54;100248.31;;;5.89;76.69
77227;BME280;66234;47.642;19.144;2023-03-22T04:00:57;100264.25;;;5.89;77.34
77227;BME280;66234;47.642;19.144;2023-03-22T04:04:27;100263.09;;;5.83;77.56
77227;BME280;66234;47.642;19.144;2023-03-22T04:07:37;100259.94;;;5.88;77.09
77227;BME280;66234;47.642;19.144;2023-03-22T04:10:40;100262.44;;;5.89;77.52
77227;BME280;66234;47.642;19.144;2023-03-22T04:13:43;100253.88;;;5.71;78.54
77227;BME280;66234;47.642;19.144;2023-03-22T04:16:50;100261.22;;;5.69;78.74
77227;BME280;66234;47.642;19.144;2023-03-22T04:19:55;100262.72;;;5.64;78.62
77227;BME280;66234;47.642;19.144;2023-03-22T04:22:58;100267.00;;;5.65;78.93
77227;BME280;66234;47.642;19.144;2023-03-22T04:26:01;100274.34;;;5.63;78.40
77227;BME280;66234;47.642;19.144;2023-03-22T04:29:15;100267.78;;;5.51;78.55
77227;BME280;66234;47.642;19.144;2023-03-22T04:32:22;100264.34;;;5.42;79.41
77227;BME280;66234;47.642;19.144;2023-03-22T04:35:26;100276.31;;;5.30;80.60
77227;BME280;66234;47.642;19.144;2023-03-22T04:38:29;100267.56;;;5.22;81.47
77227;BME280;66234;47.642;19.144;2023-03-22T04:41:33;100268.09;;;5.17;81.11
77227;BME280;66234;47.642;19.144;2023-03-22T04:44:35;100274.25;;;5.09;81.64
77227;BME280;66234;47.642;19.144;2023-03-22T04:47:38;100281.88;;;5.04;81.79
77227;BME280;66234;47.642;19.144;2023-03-22T04:50:42;100283.91;;;5.02;81.92
77227;BME280;66234;47.642;19.144;2023-03-22T04:53:45;100275.44;;;5.07;81.98
77227;BME280;66234;47.642;19.144;2023-03-22T04:56:48;100277.75;;;5.02;81.90
77227;BME280;66234;47.642;19.144;2023-03-22T04:59:53;100273.31;;;4.94;82.04
77227;BME280;66234;47.642;19.144;2023-03-22T05:02:57;100277.44;;;4.89;82.25
77227;BME280;66234;47.642;19.144;2023-03-22T05:06:09;100288.53;;;5.00;81.85
77227;BME280;66234;47.642;19.144;2023-03-22T05:09:21;100294.66;;;5.01;81.56
77227;BME280;66234;47.642;19.144;2023-03-22T05:12:27;100298.63;;;4.97;81.96
77227;BME280;66234;47.642;19.144;2023-03-22T05:15:50;100290.19;;;4.93;82.20
77227;BME280;66234;47.642;19.144;2023-03-22T05:18:57;100299.97;;;5.01;81.15
77227;BME280;66234;47.642;19.144;2023-03-22T05:22:00;100308.91;;;4.92;81.74
77227;BME280;66234;47.642;19.144;2023-03-22T05:25:18;100316.22;;;4.90;82.17
77227;BME280;66234;47.642;19.144;2023-03-22T05:28:21;100309.75;;;4.92;81.88
77227;BME280;66234;47.642;19.144;2023-03-22T05:31:59;100321.00;;;4.94;82.12
77227;BME280;66234;47.642;19.144;2023-03-22T05:35:02;100321.44;;;5.06;81.66
77227;BME280;66234;47.642;19.144;2023-03-22T05:38:11;100311.66;;;5.23;81.45
77227;BME280;66234;47.642;19.144;2023-03-22T05:41:19;100318.06;;;5.36;81.14
77227;BME280;66234;47.642;19.144;2023-03-22T05:44:22;100313.97;;;5.56;80.52
77227;BME280;66234;47.642;19.144;2023-03-22T05:47:37;100309.06;;;5.76;79.91
77227;BME280;66234;47.642;19.144;2023-03-22T05:50:54;100318.78;;;5.91;79.62
77227;BME280;66234;47.642;19.144;2023-03-22T05:53:57;100329.47;;;6.06;79.36
77227;BME280;66234;47.642;19.144;2023-03-22T05:57:08;100321.38;;;6.22;78.47
77227;BME280;66234;47.642;19.144;2023-03-22T06:00:13;100327.66;;;6.29;77.89
77227;BME280;66234;47.642;19.144;2023-03-22T06:03:38;100333.66;;;6.45;77.23
77227;BME280;66234;47.642;19.144;2023-03-22T06:06:50;100341.50;;;6.61;76.90
77227;BME280;66234;47.642;19.144;2023-03-22T06:10:15;100333.34;;;6.78;76.93
77227;BME280;66234;47.642;19.144;2023-03-22T06:13:20;100342.22;;;6.93;77.03
77227;BME280;66234;47.642;19.144;2023-03-22T06:16:35;100338.09;;;7.05;76.55
77227;BME280;66234;47.642;19.144;2023-03-22T06:19:38;100337.28;;;7.19;76.01
77227;BME280;66234;47.642;19.144;2023-03-22T06:22:42;100341.41;;;7.36;75.86
77227;BME280;66234;47.642;19.144;2023-03-22T06:25:45;100344.94;;;7.43;76.27
77227;BME280;66234;47.642;19.144;2023-03-22T06:28:49;100353.59;;;7.59;75.85
77227;BME280;66234;47.642;19.144;2023-03-22T06:31:53;100362.09;;;7.84;75.20
77227;BME280;66234;47.642;19.144;2023-03-22T06:34:56;100356.78;;;8.05;74.53
77227;BME280;66234;47.642;19.144;2023-03-22T06:38:00;100352.59;;;8.31;73.57
77227;BME280;66234;47.642;19.144;2023-03-22T06:41:03;100341.91;;;8.53;72.80
77227;BME280;66234;47.642;19.144;2023-03-22T06:44:06;100342.38;;;8.84;72.47
77227;BME280;66234;47.642;19.144;2023-03-22T06:47:35;100344.56;;;9.29;70.86
77227;BME280;66234;47.642;19.144;2023-03-22T06:50:48;100349.47;;;9.66;70.29
77227;BME280;66234;47.642;19.144;2023-03-22T06:54:00;100349.16;;;9.95;68.56
77227;BME280;66234;47.642;19.144;2023-03-22T06:57:03;100343.53;;;10.31;67.79
77227;BME280;66234;47.642;19.144;2023-03-22T07:00:06;100335.56;;;10.57;66.39
77227;BME280;66234;47.642;19.144;2023-03-22T07:03:09;100345.88;;;10.79;65.43
77227;BME280;66234;47.642;19.144;2023-03-22T07:06:34;100356.97;;;11.09;64.46
77227;BME280;66234;47.642;19.144;2023-03-22T07:09:39;100353.81;;;11.38;63.31
77227;BME280;66234;47.642;19.144;2023-03-22T07:12:48;100361.41;;;11.47;62.60
77227;BME280;66234;47.642;19.144;2023-03-22T07:15:59;100362.47;;;11.40;62.10
77227;BME280;66234;47.642;19.144;2023-03-22T07:19:20;100366.38;;;11.31;63.74
77227;BME280;66234;47.642;19.144;2023-03-22T07:22:23;100377.50;;;11.41;63.91
77227;BME280;66234;47.642;19.144;2023-03-22T07:25:29;100384.69;;;11.40;63.67
77227;BME280;66234;47.642;19.144;2023-03-22T07:28:46;100366.13;;;11.52;63.38
77227;BME280;66234;47.642;19.144;2023-03-22T07:31:50;100361.78;;;11.71;62.78
77227;BME280;66234;47.642;19.144;2023-03-22T07:34:58;100376.56;;;11.93;61.82
77227;BME280;66234;47.642;19.144;2023-03-22T07:38:03;100370.34;;;11.92;61.86
77227;BME280;66234;47.642;19.144;2023-03-22T07:41:09;100353.41;;;12.05;60.57
77227;BME280;66234;47.642;19.144;2023-03-22T07:44:39;100361.09;;;12.26;60.32
77227;BME280;66234;47.642;19.144;2023-03-22T07:47:54;100356.31;;;12.34;59.97
77227;BME280;66234;47.642;19.144;2023-03-22T07:51:33;100356.44;;;12.46;58.92
77227;BME280;66234;47.642;19.144;2023-03-22T07:54:37;100352.84;;;12.58;58.37
77227;BME280;66234;47.642;19.144;2023-03-22T07:57:42;100356.22;;;12.78;58.23
77227;BME280;66234;47.642;19.144;2023-03-22T08:00:44;100353.03;;;12.88;56.66
77227;BME280;66234;47.642;19.144;2023-03-22T08:04:05;100355.75;;;12.81;56.72
77227;BME280;66234;47.642;19.144;2023-03-22T08:07:26;100348.19;;;12.72;57.02
77227;BME280;66234;47.642;19.144;2023-03-22T08:10:32;100353.09;;;12.81;57.02
77227;BME280;66234;47.642;19.144;2023-03-22T08:13:35;100353.88;;;12.88;56.97
77227;BME280;66234;47.642;19.144;2023-03-22T08:16:39;100355.06;;;12.92;56.51
77227;BME280;66234;47.642;19.144;2023-03-22T08:19:46;100348.06;;;13.16;56.20
77227;BME280;66234;47.642;19.144;2023-03-22T08:23:12;100349.50;;;13.37;55.37
77227;BME280;66234;47.642;19.144;2023-03-22T08:26:31;100357.88;;;13.47;55.55
77227;BME280;66234;47.642;19.144;2023-03-22T08:29:51;100361.53;;;13.70;54.26
77227;BME280;66234;47.642;19.144;2023-03-22T08:32:54;100354.94;;;13.66;53.90
77227;BME280;66234;47.642;19.144;2023-03-22T08:36:08;100360.19;;;13.79;53.90
77227;BME280;66234;47.642;19.144;2023-03-22T08:39:18;100364.16;;;14.06;53.03
77227;BME280;66234;47.642;19.144;2023-03-22T08:42:43;100367.19;;;14.46;51.53
77227;BME280;66234;47.642;19.144;2023-03-22T08:45:46;100359.81;;;14.53;51.00
77227;BME280;66234;47.642;19.144;2023-03-22T08:48:51;100362.91;;;14.27;52.52
77227;BME280;66234;47.642;19.144;2023-03-22T08:52:01;100365.88;;;14.37;52.31
77227;BME280;66234;47.642;19.144;2023-03-22T08:55:42;100363.81;;;14.62;51.92
77227;BME280;66234;47.642;19.144;2023-03-22T08:58:46;100358.03;;;14.35;50.92
77227;BME280;66234;47.642;19.144;2023-03-22T09:02:07;100366.28;;;14.52;50.69
77227;BME280;66234;47.642;19.144;2023-03-22T09:05:11;100361.94;;;14.51;51.96
77227;BME280;66234;47.642;19.144;2023-03-22T09:08:16;100367.03;;;14.70;50.59
77227;BME280;66234;47.642;19.144;2023-03-22T09:11:26;100368.59;;;15.13;49.25
77227;BME280;66234;47.642;19.144;2023-03-22T09:14:30;100365.78;;;15.31;49.19
77227;BME280;66234;47.642;19.144;2023-03-22T09:17:33;100370.13;;;15.20;49.21
77227;BME280;66234;47.642;19.144;2023-03-22T09:20:38;100367.19;;;14.99;49.98
77227;BME280;66234;47.642;19.144;2023-03-22T09:23:42;100363.78;;;15.15;49.08
77227;BME280;66234;47.642;19.144;2023-03-22T09:26:51;100362.72;;;15.27;48.92
77227;BME280;66234;47.642;19.144;2023-03-22T09:29:54;100353.63;;;15.05;49.14
77227;BME280;66234;47.642;19.144;2023-03-22T09:32:58;100343.75;;;15.22;48.80
77227;BME280;66234;47.642;19.144;2023-03-22T09:36:01;100341.34;;;15.44;48.38
77227;BME280;66234;47.642;19.144;2023-03-22T09:39:07;100333.69;;;15.64;47.59
77227;BME280;66234;47.642;19.144;2023-03-22T09:45:36;100334.06;;;15.44;47.96
77227;BME280;66234;47.642;19.144;2023-03-22T09:48:42;100335.44;;;15.58;47.65
77227;BME280;66234;47.642;19.144;2023-03-22T09:51:48;100324.22;;;15.50;48.32
77227;BME280;66234;47.642;19.144;2023-03-22T09:54:52;100335.06;;;15.66;47.58
77227;BME280;66234;47.642;19.144;2023-03-22T10:08:03;100338.59;;;15.55;47.67
77227;BME280;66234;47.642;19.144;2023-03-22T10:11:35;100336.75;;;15.56;47.83
77227;BME280;66234;47.642;19.144;2023-03-22T10:14:41;100326.91;;;15.38;48.33
77227;BME280;66234;47.642;19.144;2023-03-22T10:17:51;100329.00;;;15.59;47.72
77227;BME280;66234;47.642;19.144;2023-03-22T10:21:04;100326.91;;;16.01;47.07
77227;BME280;66234;47.642;19.144;2023-03-22T10:24:29;100332.81;;;15.75;47.48
77227;BME280;66234;47.642;19.144;2023-03-22T10:27:34;100329.13;;;15.41;48.19
77227;BME280;66234;47.642;19.144;2023-03-22T10:30:39;100325.50;;;15.36;48.17
77227;BME280;66234;47.642;19.144;2023-03-22T10:34:04;100324.00;;;15.40;47.51
77227;BME280;66234;47.642;19.144;2023-03-22T10:37:13;100326.81;;;15.45;48.45
77227;BME280;66234;47.642;19.144;2023-03-22T10:40:20;100323.94;;;15.74;47.98
77227;BME280;66234;47.642;19.144;2023-03-22T10:43:34;100327.91;;;15.72;47.16
77227;BME280;66234;47.642;19.144;2023-03-22T10:46:38;100326.31;;;15.99;46.65
77227;BME280;66234;47.642;19.144;2023-03-22T10:49:45;100322.28;;;15.73;46.92
77227;BME280;66234;47.642;19.144;2023-03-22T10:53:05;100320.22;;;15.64;47.29
77227;BME280;66234;47.642;19.144;2023-03-22T10:56:19;100321.94;;;15.70;47.79
77227;BME280;66234;47.642;19.144;2023-03-22T10:59:51;100322.59;;;15.88;47.17
77227;BME280;66234;47.642;19.144;2023-03-22T11:02:59;100315.88;;;16.02;47.30
77227;BME280;66234;47.642;19.144;2023-03-22T11:09:21;100319.59;;;16.01;47.29
77227;BME280;66234;47.642;19.144;2023-03-22T11:12:24;100315.47;;;16.10;46.86
77227;BME280;66234;47.642;19.144;2023-03-22T11:15:32;100310.53;;;16.07;46.61
77227;BME280;66234;47.642;19.144;2023-03-22T11:18:36;100298.69;;;16.36;46.34
77227;BME280;66234;47.642;19.144;2023-03-22T11:21:44;100293.91;;;16.88;45.46
77227;BME280;66234;47.642;19.144;2023-03-22T11:24:46;100286.50;;;17.00;44.50
77227;BME280;66234;47.642;19.144;2023-03-22T11:27:55;100280.72;;;16.92;44.88
77227;BME280;66234;47.642;19.144;2023-03-22T11:31:12;100280.41;;;16.88;44.29
77227;BME280;66234;47.642;19.144;2023-03-22T11:34:18;100281.41;;;16.66;45.01
77227;BME280;66234;47.642;19.144;2023-03-22T11:37:21;100272.72;;;16.97;44.21
77227;BME280;66234;47.642;19.144;2023-03-22T11:40:48;100267.72;;;17.27;43.50
77227;BME280;66234;47.642;19.144;2023-03-22T11:43:54;100264.53;;;16.92;43.87
77227;BME280;66234;47.642;19.144;2023-03-22T11:47:00;100256.63;;;17.07;43.88
77227;BME280;66234;47.642;19.144;2023-03-22T11:50:07;100263.28;;;16.99;43.32
77227;BME280;66234;47.642;19.144;2023-03-22T11:53:16;100260.94;;;17.24;43.58
77227;BME280;66234;47.642;19.144;2023-03-22T11:56:24;100256.09;;;17.26;43.30
77227;BME280;66234;47.642;19.144;2023-03-22T12:00:30;100254.09;;;17.17;42.96
77227;BME280;66234;47.642;19.144;2023-03-22T12:03:04;100253.75;;;17.13;43.40
77227;BME280;66234;47.642;19.144;2023-03-22T12:06:25;100252.75;;;16.65;44.00
77227;BME280;66234;47.642;19.144;2023-03-22T12:09:42;100259.41;;;16.74;43.39
77227;BME280;66234;47.642;19.144;2023-03-22T12:12:52;100259.44;;;16.95;43.39
77227;BME280;66234;47.642;19.144;2023-03-22T12:15:58;100259.63;;;16.89;43.30
77227;BME280;66234;47.642;19.144;2023-03-22T12:22:20;100250.47;;;17.71;42.67
77227;BME280;66234;47.642;19.144;2023-03-22T12:25:28;100252.72;;;17.57;42.14
77227;BME280;66234;47.642;19.144;2023-03-22T12:28:39;100248.47;;;17.61;41.92
77227;BME280;66234;47.642;19.144;2023-03-22T12:31:51;100249.31;;;17.67;41.59
77227;BME280;66234;47.642;19.144;2023-03-22T12:35:02;100249.19;;;17.35;42.88
77227;BME280;66234;47.642;19.144;2023-03-22T12:38:44;100247.34;;;17.41;41.96
77227;BME280;66234;47.642;19.144;2023-03-22T12:41:52;100245.41;;;17.15;42.91
77227;BME280;66234;47.642;19.144;2023-03-22T12:44:58;100249.47;;;17.17;42.49
77227;BME280;66234;47.642;19.144;2023-03-22T12:48:20;100249.69;;;17.11;42.28
77227;BME280;66234;47.642;19.144;2023-03-22T12:51:24;100247.16;;;17.26;41.83
77227;BME280;66234;47.642;19.144;2023-03-22T12:54:31;100245.97;;;17.17;41.86
77227;BME280;66234;47.642;19.144;2023-03-22T12:57:34;100242.53;;;17.21;41.82
77227;BME280;66234;47.642;19.144;2023-03-22T13:11:03;100213.91;;;17.68;40.88
77227;BME280;66234;47.642;19.144;2023-03-22T13:14:06;100218.63;;;17.78;40.77
77227;BME280;66234;47.642;19.144;2023-03-22T13:17:14;100219.44;;;17.78;41.13
77227;BME280;66234;47.642;19.144;2023-03-22T13:20:35;100210.50;;;18.04;39.87
77227;BME280;66234;47.642;19.144;2023-03-22T13:27:08;100203.69;;;17.97;39.49
77227;BME280;66234;47.642;19.144;2023-03-22T13:30:29;100207.25;;;18.34;39.03
77227;BME280;66234;47.642;19.144;2023-03-22T13:33:35;100198.31;;;18.34;39.27
77227;BME280;66234;47.642;19.144;2023-03-22T13:36:38;100200.69;;;18.25;39.66
77227;BME280;66234;47.642;19.144;2023-03-22T13:39:41;100193.88;;;18.18;39.55
77227;BME280;66234;47.642;19.144;2023-03-22T13:42:49;100192.97;;;18.12;39.34
77227;BME280;66234;47.642;19.144;2023-03-22T13:49:42;100193.56;;;17.87;39.47
77227;BME280;66234;47.642;19.144;2023-03-22T13:53:02;100182.75;;;17.87;39.55
77227;BME280;66234;47.642;19.144;2023-03-22T13:56:23;100178.88;;;18.10;39.14
77227;BME280;66234;47.642;19.144;2023-03-22T14:00:15;100179.22;;;18.45;38.91
77227;BME280;66234;47.642;19.144;2023-03-22T14:03:21;100177.31;;;18.41;39.02
77227;BME280;66234;47.642;19.144;2023-03-22T14:06:29;100180.06;;;18.51;39.04
77227;BME280;66234;47.642;19.144;2023-03-22T14:09:43;100170.78;;;18.10;39.89
77227;BME280;66234;47.642;19.144;2023-03-22T14:13:01;100169.97;;;18.10;39.38
77227;BME280;66234;47.642;19.144;2023-03-22T14:16:12;100168.41;;;18.19;40.06
77227;BME280;66234;47.642;19.144;2023-03-22T14:19:22;100167.16;;;18.31;38.92
77227;BME280;66234;47.642;19.144;2023-03-22T14:22:32;100156.97;;;18.07;38.64
77227;BME280;66234;47.642;19.144;2023-03-22T14:25:34;100159.41;;;18.08;38.29
77227;BME280;66234;47.642;19.144;2023-03-22T14:28:37;100154.41;;;17.95;38.76
77227;BME280;66234;47.642;19.144;2023-03-22T14:31:41;100150.75;;;17.79;38.77
77227;BME280;66234;47.642;19.144;2023-03-22T14:34:43;100155.91;;;17.81;38.67
77227;BME280;66234;47.642;19.144;2023-03-22T14:37:46;100154.03;;;17.81;38.79
77227;BME280;66234;47.642;19.144;2023-03-22T14:40:48;100153.13;;;17.76;38.29
77227;BME280;66234;47.642;19.144;2023-03-22T14:43:56;100149.94;;;17.79;37.79
77227;BME280;66234;47.642;19.144;2023-03-22T14:47:14;100142.63;;;17.79;37.56
77227;BME280;66234;47.642;19.144;2023-03-22T14:50:18;100141.81;;;17.79;37.17
77227;BME280;66234;47.642;19.144;2023-03-22T14:53:30;100138.97;;;17.64;37.05
77227;BME280;66234;47.642;19.144;2023-03-22T14:56:38;100144.56;;;17.57;37.35
77227;BME280;66234;47.642;19.144;2023-03-22T14:59:42;100138.44;;;17.62;37.01
77227;BME280;66234;47.642;19.144;2023-03-22T15:02:47;100140.88;;;17.63;38.21
77227;BME280;66234;47.642;19.144;2023-03-22T15:05:51;100132.00;;;17.68;37.83
77227;BME280;66234;47.642;19.144;2023-03-22T15:08:53;100133.63;;;17.69;37.85
77227;BME280;66234;47.642;19.144;2023-03-22T15:12:01;100123.19;;;17.56;38.59
77227;BME280;66234;47.642;19.144;2023-03-22T15:15:04;100125.88;;;17.51;38.49
77227;BME280;66234;47.642;19.144;2023-03-22T15:18:07;100125.09;;;17.55;38.59
77227;BME280;66234;47.642;19.144;2023-03-22T15:21:14;100124.72;;;17.47;38.08
77227;BME280;66234;47.642;19.144;2023-03-22T15:24:26;100123.03;;;17.41;38.12
77227;BME280;66234;47.642;19.144;2023-03-22T15:27:30;100121.94;;;17.42;38.35
77227;BME280;66234;47.642;19.144;2023-03-22T15:30:34;100118.06;;;17.33;38.18
77227;BME280;66234;47.642;19.144;2023-03-22T15:33:37;100120.56;;;17.39;38.29
77227;BME280;66234;47.642;19.144;2023-03-22T15:36:39;100118.28;;;17.48;38.50
77227;BME280;66234;47.642;19.144;2023-03-22T15:39:40;100118.88;;;17.55;37.93
77227;BME280;66234;47.642;19.144;2023-03-22T15:42:42;100117.25;;;17.54;38.08
77227;BME280;66234;47.642;19.144;2023-03-22T15:49:20;100118.31;;;17.53;38.40
77227;BME280;66234;47.642;19.144;2023-03-22T15:52:30;100115.25;;;17.71;38.08
77227;BME280;66234;47.642;19.144;2023-03-22T15:55:37;100118.56;;;17.78;37.94
77227;BME280;66234;47.642;19.144;2023-03-22T15:58:51;100108.72;;;17.98;37.74
77227;BME280;66234;47.642;19.144;2023-03-22T16:02:00;100103.53;;;17.92;37.65
77227;BME280;66234;47.642;19.144;2023-03-22T16:05:13;100110.88;;;17.65;38.49
77227;BME280;66234;47.642;19.144;2023-03-22T16:08:15;100109.59;;;17.46;38.59
77227;BME280;66234;47.642;19.144;2023-03-22T16:11:18;100113.31;;;17.66;38.12
77227;BME280;66234;47.642;19.144;2023-03-22T16:14:21;100112.19;;;17.62;38.83
77227;BME280;66234;47.642;19.144;2023-03-22T16:17:23;100114.44;;;17.44;39.36
77227;BME280;66234;47.642;19.144;2023-03-22T16:20:27;100117.47;;;17.04;40.68
77227;BME280;66234;47.642;19.144;2023-03-22T16:23:32;100119.97;;;16.68;41.59
77227;BME280;66234;47.642;19.144;2023-03-22T16:26:33;100110.03;;;16.52;42.22
77227;BME280;66234;47.642;19.144;2023-03-22T16:29:35;100108.56;;;16.27;43.07
77227;BME280;66234;47.642;19.144;2023-03-22T16:32:36;100110.78;;;16.14;43.45
77227;BME280;66234;47.642;19.144;2023-03-22T16:35:38;100118.41;;;16.00;44.24
77227;BME280;66234;47.642;19.144;2023-03-22T16:38:39;100120.28;;;15.83;44.81
77227;BME280;66234;47.642;19.144;2023-03-22T16:41:41;100126.38;;;15.62;45.51
77227;BME280;66234;47.642;19.144;2023-03-22T16:44:44;100125.28;;;15.47;45.80
77227;BME280;66234;47.642;19.144;2023-03-22T16:47:45;100124.88;;;15.27;46.85
77227;BME280;66234;47.642;19.144;2023-03-22T16:50:47;100132.88;;;15.10;47.42
77227;BME280;66234;47.642;19.144;2023-03-22T16:53:50;100135.28;;;14.95;47.83
77227;BME280;66234;47.642;19.144;2023-03-22T16:56:52;100137.88;;;14.78;48.64
77227;BME280;66234;47.642;19.144;2023-03-22T16:59:53;100134.06;;;14.63;48.95
77227;BME280;66234;47.642;19.144;2023-03-22T17:02:57;100123.75;;;14.48;49.55
77227;BME280;66234;47.642;19.144;2023-03-22T17:05:59;100129.28;;;14.30;50.21
77227;BME280;66234;47.642;19.144;2023-03-22T17:09:01;100118.81;;;14.11;50.85
77227;BME280;66234;47.642;19.144;2023-03-22T17:12:03;100122.19;;;13.95;51.63
77227;BME280;66234;47.642;19.144;2023-03-22T17:15:32;100119.59;;;13.77;51.85
77227;BME280;66234;47.642;19.144;2023-03-22T17:18:35;100120.03;;;13.62;52.45
77227;BME280;66234;47.642;19.144;2023-03-22T17:21:37;100121.28;;;13.48;52.67
77227;BME280;66234;47.642;19.144;2023-03-22T17:24:39;100126.81;;;13.35;53.40